EBBR/BRU METAR and TAF weather

Enter ICAO airport designator
Station Type Date Time Source
EBBR METAR 2022/06/25 22:20 UTC NOAA

EBBR 252220Z VRB01KT 9999 FEW010 15/14 Q1012 NOSIG


Station Type Date Time Source
EBBR Decoded METAR 2022/06/25 22:20 UTC NOAA

Bruxelles National, Belgium (EBBR) 50-54N 004-32E 58M
Jun 25, 2022 - 06:20 PM EDT / 2022.06.25 2220 UTC
Wind: Variable at 1 MPH (1 KT):0
Visibility: greater than 7 mile(s):0
Sky conditions: mostly clear
Temperature: 59 F (15 C)
Dew Point: 57 F (14 C)
Relative Humidity: 93%
Pressure (altimeter): 29.88 in. Hg (1012 hPa)
ob: EBBR 252220Z VRB01KT 9999 FEW010 15/14 Q1012 NOSIG
cycle: 22

Station Type Date Time Source
EBBR TAF 2022/06/25 18:27 UTC NOAA

TAF TAF EBBR 251700Z 2518/2624 21006KT 9999 SCT035
TEMPO 2518/2522 4000 SHRA

Example: see airport list